Time;durP1;ratioP1;P1;durP2;ratioP2;P2;SDS_P1;SDS_P2;PMS_P1;PMS_P2;Temp;Humidity;BMP_temperature;BMP_pressure;BME280_temperature;BME280_humidity;BME280_pressure;Samples;Min_cycle;Max_cycle;Signal;HPM_P1;HPM_P2
2022/03/18 00:00:47;;;;;;;24.05;11.82;;;;;;;1.49;43.35;100316.06;5015058;28;20018;-70
2022/03/18 00:03:13;;;;;;;25.08;12.98;;;;;;;1.52;43.65;100314.00;5014586;28;20036;-67
2022/03/18 00:05:39;;;;;;;25.45;12.95;;;;;;;1.57;44.09;100317.84;5013770;28;20025;-67
2022/03/18 00:08:05;;;;;;;27.83;12.73;;;;;;;1.64;43.86;100320.59;5015241;28;20454;-67
2022/03/18 00:10:31;;;;;;;25.75;12.30;;;;;;;1.62;43.77;100317.25;5014535;28;20038;-68
2022/03/18 00:12:57;;;;;;;22.85;11.15;;;;;;;1.61;43.63;100311.00;5014777;28;20028;-68
2022/03/18 00:15:23;;;;;;;26.98;12.48;;;;;;;1.53;43.80;100318.38;5014370;28;20029;-67
2022/03/18 00:17:49;;;;;;;25.48;12.23;;;;;;;1.43;43.43;100319.53;5010326;28;20056;-67
2022/03/18 00:20:15;;;;;;;24.38;11.77;;;;;;;1.41;43.79;100326.16;5014338;28;20042;-67
2022/03/18 00:22:42;;;;;;;23.85;12.35;;;;;;;1.36;44.31;100324.03;5014593;28;20030;-67
2022/03/18 00:25:09;;;;;;;22.33;11.38;;;;;;;1.33;43.72;100327.94;5014396;28;20026;-67
2022/03/18 00:27:35;;;;;;;24.35;11.88;;;;;;;1.34;44.24;100323.38;5014997;28;20034;-68
2022/03/18 00:30:01;;;;;;;28.25;15.32;;;;;;;1.39;44.51;100320.97;5013952;28;20156;-68
2022/03/18 00:32:26;;;;;;;29.83;16.17;;;;;;;1.43;44.28;100322.22;5013928;28;20509;-68
2022/03/18 00:34:52;;;;;;;24.80;13.10;;;;;;;1.46;44.25;100319.16;5014261;28;20017;-68
2022/03/18 00:37:17;;;;;;;23.02;12.88;;;;;;;1.46;43.97;100313.75;5014372;28;20462;-67
2022/03/18 00:39:43;;;;;;;25.63;12.93;;;;;;;1.45;44.23;100322.06;5013848;28;20018;-67
2022/03/18 00:42:10;;;;;;;23.27;11.20;;;;;;;1.42;44.24;100320.59;5012991;28;20026;-68
2022/03/18 00:44:36;;;;;;;26.13;12.73;;;;;;;1.40;43.97;100322.63;5013435;28;20036;-69
2022/03/18 00:47:01;;;;;;;21.67;11.77;;;;;;;1.40;44.23;100314.53;5014123;28;20085;-68
2022/03/18 00:52:14;;;;;;;23.23;12.32;;;;;;;1.33;44.06;100321.72;5013902;28;20036;-68
2022/03/18 00:54:42;;;;;;;22.75;12.50;;;;;;;1.25;44.29;100328.03;5010990;28;20049;-68
2022/03/18 00:57:09;;;;;;;24.92;12.27;;;;;;;1.22;44.12;100322.19;5013459;28;20072;-68
2022/03/18 00:59:34;;;;;;;24.33;11.40;;;;;;;1.23;44.51;100321.16;5013768;28;20092;-68
2022/03/18 01:02:00;;;;;;;21.88;12.05;;;;;;;1.22;44.27;100319.50;5013638;28;20018;-68
2022/03/18 01:04:28;;;;;;;22.20;11.85;;;;;;;1.23;44.33;100319.28;5013923;28;20030;-68
2022/03/18 01:06:54;;;;;;;21.80;11.32;;;;;;;1.18;44.41;100316.34;5011032;28;20080;-68
2022/03/18 01:09:21;;;;;;;20.20;10.48;;;;;;;1.13;44.71;100321.47;5008650;28;20506;-68
2022/03/18 01:11:48;;;;;;;22.38;12.02;;;;;;;1.12;44.28;100320.63;5013646;28;20030;-69
2022/03/18 01:14:13;;;;;;;23.50;11.10;;;;;;;1.12;44.51;100317.91;5013546;28;20026;-69
2022/03/18 01:16:39;;;;;;;24.38;11.70;;;;;;;1.17;44.73;100318.19;5013728;28;20022;-69
2022/03/18 01:19:04;;;;;;;19.77;11.02;;;;;;;1.16;44.76;100315.69;5013696;28;20045;-69
2022/03/18 01:21:30;;;;;;;26.13;11.88;;;;;;;1.15;44.57;100306.72;5013416;28;20052;-69
2022/03/18 01:23:56;;;;;;;31.48;14.90;;;;;;;1.14;44.24;100312.34;5017755;28;20022;-69
2022/03/18 01:26:21;;;;;;;26.75;13.43;;;;;;;1.14;44.17;100310.44;5013285;28;20045;-69
2022/03/18 01:28:47;;;;;;;32.33;14.48;;;;;;;1.11;44.94;100312.72;5012715;28;20034;-69
2022/03/18 01:31:12;;;;;;;28.50;12.95;;;;;;;1.06;45.03;100304.31;5009044;28;20080;-69
2022/03/18 01:33:38;;;;;;;26.00;14.13;;;;;;;1.10;45.06;100306.44;5012374;28;20084;-69
2022/03/18 01:36:04;;;;;;;21.80;11.85;;;;;;;1.13;45.01;100303.38;5013347;28;20046;-69
2022/03/18 01:38:30;;;;;;;22.50;12.05;;;;;;;1.14;44.98;100296.94;5012627;28;20184;-67
2022/03/18 01:40:55;;;;;;;21.25;11.73;;;;;;;1.12;44.87;100307.09;5012666;28;20502;-69
2022/03/18 01:43:22;;;;;;;23.00;11.98;;;;;;;1.08;44.94;100303.09;5012782;28;20117;-68
2022/03/18 01:45:49;;;;;;;20.15;10.85;;;;;;;1.06;45.17;100315.94;5012951;28;20029;-68
2022/03/18 01:48:14;;;;;;;24.23;12.10;;;;;;;1.03;44.70;100310.91;5012333;28;20026;-69
2022/03/18 01:50:41;;;;;;;22.38;12.05;;;;;;;1.03;45.02;100317.19;5013606;28;20022;-68
2022/03/18 01:53:07;;;;;;;19.95;10.77;;;;;;;1.02;44.90;100309.25;5013855;28;20393;-69
2022/03/18 01:55:33;;;;;;;31.15;14.10;;;;;;;0.99;44.78;100310.47;5006580;28;20048;-68
2022/03/18 01:57:59;;;;;;;22.33;13.15;;;;;;;1.01;45.13;100311.13;5002710;28;20073;-68
2022/03/18 02:00:24;;;;;;;22.75;11.77;;;;;;;1.02;45.11;100314.66;5005869;28;20080;-68
2022/03/18 02:02:51;;;;;;;23.52;10.75;;;;;;;1.03;44.82;100319.88;5012865;28;20120;-69
2022/03/18 02:05:17;;;;;;;21.85;11.10;;;;;;;1.01;44.93;100321.09;5012560;28;20471;-68
2022/03/18 02:07:45;;;;;;;23.80;12.20;;;;;;;0.97;45.16;100325.22;5012865;28;20541;-68
2022/03/18 02:10:11;;;;;;;22.75;12.75;;;;;;;0.98;45.32;100326.88;5012524;28;20057;-68
2022/03/18 02:12:37;;;;;;;21.17;11.77;;;;;;;1.05;45.08;100319.69;5011315;28;20026;-69
2022/03/18 02:15:03;;;;;;;19.55;11.00;;;;;;;1.08;45.14;100334.69;5012811;28;20391;-68
2022/03/18 02:17:29;;;;;;;25.02;12.00;;;;;;;1.02;45.34;100333.56;5011559;28;20096;-69
2022/03/18 02:19:55;;;;;;;26.92;12.32;;;;;;;1.02;45.20;100331.72;5012512;28;20541;-68
2022/03/18 02:22:25;;;;;;;23.00;11.70;;;;;;;1.09;45.14;100333.69;5012841;28;20109;-69
2022/03/18 02:24:53;;;;;;;22.05;12.25;;;;;;;1.03;45.13;100336.09;5013069;28;20481;-69
2022/03/18 02:27:19;;;;;;;26.25;13.52;;;;;;;0.97;45.36;100344.94;5012825;28;20032;-69
2022/03/18 02:29:45;;;;;;;23.00;11.27;;;;;;;0.97;45.44;100341.41;5012737;28;20026;-68
2022/03/18 02:32:13;;;;;;;23.15;12.07;;;;;;;0.89;45.08;100345.03;5013072;28;20028;-68
2022/03/18 02:34:39;;;;;;;23.33;11.88;;;;;;;0.81;45.14;100342.44;5027454;28;20050;-69
2022/03/18 02:37:06;;;;;;;23.63;12.00;;;;;;;0.78;45.34;100356.31;5012073;28;20066;-69
2022/03/18 02:39:31;;;;;;;22.38;11.20;;;;;;;0.77;45.50;100351.94;5012477;28;20040;-69
2022/03/18 02:41:57;;;;;;;27.63;13.63;;;;;;;0.73;45.41;100359.56;5011779;28;20034;-68
2022/03/18 02:44:22;;;;;;;30.20;14.45;;;;;;;0.72;45.77;100352.47;5011822;28;20026;-68
2022/03/18 02:46:48;;;;;;;26.55;14.05;;;;;;;0.67;45.34;100350.34;5011863;28;20033;-68
2022/03/18 02:49:14;;;;;;;20.10;11.05;;;;;;;0.62;45.74;100355.44;5012866;28;20068;-69
2022/03/18 02:51:39;;;;;;;21.25;10.75;;;;;;;0.59;45.68;100361.22;4994258;28;20156;-68
2022/03/18 02:54:06;;;;;;;19.42;10.82;;;;;;;0.58;45.63;100363.09;5011773;28;20030;-69
2022/03/18 02:56:32;;;;;;;21.73;10.40;;;;;;;0.56;46.07;100364.28;5011344;28;20096;-69
2022/03/18 02:59:00;;;;;;;20.25;11.35;;;;;;;0.54;45.97;100369.03;5011614;28;20045;-69
2022/03/18 03:01:28;;;;;;;25.13;11.95;;;;;;;0.54;46.13;100375.28;5011346;28;20034;-69
2022/03/18 03:03:57;;;;;;;20.52;10.88;;;;;;;0.56;46.02;100384.03;5011632;28;20037;-69
2022/03/18 03:09:07;;;;;;;22.63;10.82;;;;;;;0.44;46.04;100382.78;5011507;28;20088;-69
2022/03/18 03:11:34;;;;;;;22.30;11.80;;;;;;;0.47;46.27;100387.81;5010984;28;20470;-69
2022/03/18 03:13:59;;;;;;;21.00;10.80;;;;;;;0.47;46.13;100379.72;5011662;28;20025;-69
2022/03/18 03:16:25;;;;;;;24.45;12.35;;;;;;;0.51;46.20;100391.00;5011744;28;20041;-69
2022/03/18 03:18:50;;;;;;;21.50;11.70;;;;;;;0.51;46.13;100389.16;5011716;28;20147;-69
2022/03/18 03:21:16;;;;;;;19.98;11.23;;;;;;;0.51;45.79;100388.28;5011089;28;20125;-69
2022/03/18 03:23:42;;;;;;;21.98;11.77;;;;;;;0.48;46.42;100391.34;5011771;28;20049;-69
2022/03/18 03:26:08;;;;;;;22.52;11.75;;;;;;;0.46;46.30;100394.25;5012882;28;20458;-70
2022/03/18 03:28:34;;;;;;;23.15;12.52;;;;;;;0.36;46.07;100389.09;5011062;28;20034;-69
2022/03/18 03:31:00;;;;;;;24.90;11.40;;;;;;;0.30;46.16;100400.63;5008908;28;20033;-68
2022/03/18 03:33:26;;;;;;;30.20;15.10;;;;;;;0.29;46.21;100396.25;5012218;28;20026;-69
2022/03/18 03:35:52;;;;;;;53.40;21.67;;;;;;;0.34;46.28;100398.38;5012564;28;20026;-68
2022/03/18 03:38:17;;;;;;;24.95;12.98;;;;;;;0.37;46.46;100395.31;5012164;28;20052;-68
2022/03/18 03:40:43;;;;;;;28.55;13.48;;;;;;;0.34;46.44;100407.34;5012093;28;20465;-69
2022/03/18 03:43:09;;;;;;;26.05;12.75;;;;;;;0.34;46.31;100399.25;5012181;28;20029;-69
2022/03/18 03:45:38;;;;;;;23.73;12.55;;;;;;;0.39;46.34;100406.78;5011905;28;20049;-69
2022/03/18 03:48:05;;;;;;;25.83;13.67;;;;;;;0.42;46.71;100399.16;5009007;28;20092;-68
2022/03/18 03:50:31;;;;;;;25.63;13.05;;;;;;;0.45;46.62;100400.66;5010290;28;20026;-68
2022/03/18 03:52:57;;;;;;;27.42;14.50;;;;;;;0.48;46.15;100413.81;5010868;28;20028;-69
2022/03/18 03:55:22;;;;;;;22.25;11.77;;;;;;;0.48;46.56;100418.34;5010496;28;20026;-69
2022/03/18 03:57:48;;;;;;;19.90;12.85;;;;;;;0.40;46.54;100420.13;5011165;28;20050;-68
2022/03/18 04:00:14;;;;;;;23.85;12.80;;;;;;;0.39;46.49;100420.28;5011175;28;20029;-68
2022/03/18 04:02:41;;;;;;;23.63;12.63;;;;;;;0.37;46.48;100422.31;5026676;28;20033;-68
2022/03/18 04:05:08;;;;;;;24.67;12.60;;;;;;;0.37;46.57;100427.72;5011917;28;20018;-69
2022/03/18 04:07:37;;;;;;;27.10;13.10;;;;;;;0.40;46.58;100425.50;5011855;28;20033;-68
2022/03/18 04:10:04;;;;;;;23.13;12.45;;;;;;;0.35;46.57;100422.53;5011631;28;20141;-69
2022/03/18 04:12:32;;;;;;;25.23;13.32;;;;;;;0.35;46.52;100422.53;5011318;28;20037;-68
2022/03/18 04:14:58;;;;;;;28.45;14.25;;;;;;;0.40;46.60;100427.38;5011759;28;20026;-69
2022/03/18 04:17:26;;;;;;;27.60;14.07;;;;;;;0.39;46.77;100428.38;5012264;28;20028;-69
2022/03/18 04:19:52;;;;;;;23.13;12.43;;;;;;;0.32;46.72;100425.56;5010641;28;20470;-69
2022/03/18 04:22:17;;;;;;;23.73;11.77;;;;;;;0.18;46.90;100429.91;5011547;28;20030;-68
2022/03/18 04:24:43;;;;;;;23.60;12.63;;;;;;;0.13;46.54;100426.88;5005454;28;20042;-69
2022/03/18 04:27:08;;;;;;;27.25;14.23;;;;;;;0.16;47.16;100431.06;5012062;28;20038;-69
2022/03/18 04:29:34;;;;;;;25.83;13.25;;;;;;;0.15;46.70;100424.84;5011566;28;20414;-68
2022/03/18 04:31:59;;;;;;;25.45;13.68;;;;;;;0.15;46.88;100430.25;5011086;28;20037;-68
2022/03/18 04:34:25;;;;;;;24.73;13.52;;;;;;;0.13;47.08;100426.88;5011783;28;20034;-69
2022/03/18 04:36:50;;;;;;;25.00;13.32;;;;;;;0.01;46.84;100439.94;5011678;28;20077;-68
2022/03/18 04:39:16;;;;;;;26.17;14.32;;;;;;;-0.07;47.16;100453.50;4998053;28;20070;-68
2022/03/18 04:41:41;;;;;;;28.23;14.35;;;;;;;-0.06;47.17;100455.16;5014706;28;20021;-68
2022/03/18 04:44:07;;;;;;;27.55;13.48;;;;;;;-0.06;47.50;100447.06;5014887;28;20026;-68
2022/03/18 04:46:32;;;;;;;24.08;13.82;;;;;;;-0.18;47.74;100455.56;5015513;28;20030;-68
2022/03/18 04:48:59;;;;;;;28.65;14.38;;;;;;;-0.27;47.60;100447.69;5015092;28;20129;-68
2022/03/18 04:51:25;;;;;;;25.92;13.95;;;;;;;-0.33;47.89;100454.59;5014870;28;20060;-68
2022/03/18 04:53:50;;;;;;;29.90;15.38;;;;;;;-0.38;47.92;100460.53;5014498;28;20450;-68
2022/03/18 04:58:59;;;;;;;26.55;13.85;;;;;;;-0.45;48.09;100467.63;5014356;28;20076;-68
2022/03/18 05:01:26;;;;;;;29.48;15.38;;;;;;;-0.46;48.29;100466.81;5014243;28;20034;-68
2022/03/18 05:03:52;;;;;;;28.92;14.70;;;;;;;-0.41;48.27;100463.56;5014673;28;20030;-69
2022/03/18 05:06:17;;;;;;;26.83;14.60;;;;;;;-0.41;48.70;100471.66;5006222;28;20041;-68
2022/03/18 05:08:42;;;;;;;26.95;14.73;;;;;;;-0.38;48.59;100473.16;5013963;28;20139;-68
2022/03/18 05:11:08;;;;;;;27.35;15.07;;;;;;;-0.32;48.61;100470.63;5014215;28;20609;-67
2022/03/18 05:13:34;;;;;;;31.15;14.48;;;;;;;-0.32;49.00;100473.31;5014187;28;20030;-68
2022/03/18 05:15:59;;;;;;;32.10;16.50;;;;;;;-0.37;48.92;100474.84;5014620;28;20029;-68
2022/03/18 05:18:25;;;;;;;29.67;14.93;;;;;;;-0.40;49.14;100477.88;5029467;28;20390;-68
2022/03/18 05:20:50;;;;;;;30.40;15.75;;;;;;;-0.40;49.36;100475.19;5013900;28;20397;-68
2022/03/18 05:23:17;;;;;;;29.73;15.50;;;;;;;-0.40;49.34;100480.56;5014172;28;20040;-68
2022/03/18 05:25:43;;;;;;;30.85;15.57;;;;;;;-0.44;49.61;100473.88;5002037;28;20034;-68
2022/03/18 05:28:08;;;;;;;32.45;15.63;;;;;;;-0.46;49.64;100483.00;5015379;28;20053;-68
2022/03/18 05:30:33;;;;;;;29.80;15.50;;;;;;;-0.42;49.43;100486.16;5014200;28;20398;-67
2022/03/18 05:32:59;;;;;;;32.25;15.75;;;;;;;-0.40;49.74;100484.13;5013900;28;20057;-67
2022/03/18 05:35:25;;;;;;;32.53;15.68;;;;;;;-0.34;49.71;100479.88;5012705;28;20417;-68
2022/03/18 05:37:50;;;;;;;32.60;16.67;;;;;;;-0.29;49.58;100482.06;5014699;28;20021;-67
2022/03/18 05:40:18;;;;;;;28.45;15.30;;;;;;;-0.22;49.88;100485.75;5014001;28;20036;-68
2022/03/18 05:42:45;;;;;;;32.35;15.05;;;;;;;-0.18;49.55;100489.75;5013941;28;20398;-68
2022/03/18 05:45:11;;;;;;;31.20;16.00;;;;;;;-0.12;49.60;100496.34;5014147;28;20087;-68
2022/03/18 05:47:36;;;;;;;33.25;16.02;;;;;;;-0.07;49.53;100489.38;5013129;28;20474;-68
2022/03/18 05:50:05;;;;;;;32.08;14.43;;;;;;;-0.08;49.41;100484.19;5013609;28;20077;-67
2022/03/18 05:52:31;;;;;;;28.05;14.68;;;;;;;-0.03;49.48;100497.97;5012914;28;20072;-68
2022/03/18 05:54:57;;;;;;;34.55;16.75;;;;;;;0.02;49.58;100492.03;5013920;28;20029;-68
2022/03/18 05:57:26;;;;;;;30.08;16.52;;;;;;;0.01;49.43;100498.47;5013654;28;20049;-68
2022/03/18 05:59:53;;;;;;;35.17;16.58;;;;;;;0.02;49.40;100503.66;5013557;28;20099;-67
2022/03/18 06:02:18;;;;;;;34.30;18.58;;;;;;;0.03;49.62;100502.66;5012913;28;20435;-67
2022/03/18 06:04:44;;;;;;;36.03;17.83;;;;;;;0.06;49.53;100506.88;5013246;28;20034;-68
2022/03/18 06:07:11;;;;;;;30.50;16.65;;;;;;;0.13;49.67;100507.84;5013910;28;20026;-68
2022/03/18 06:12:20;;;;;;;36.13;19.65;;;;;;;0.20;49.44;100519.63;5013247;28;20131;-68
2022/03/18 06:14:45;;;;;;;31.38;18.40;;;;;;;0.20;49.58;100513.34;5013619;28;20084;-68
2022/03/18 06:17:11;;;;;;;32.28;16.25;;;;;;;0.21;49.87;100532.06;5012845;28;20474;-67
2022/03/18 06:19:36;;;;;;;29.80;16.25;;;;;;;0.19;49.76;100533.28;5005097;28;20037;-67
2022/03/18 06:22:02;;;;;;;32.63;18.23;;;;;;;0.21;49.93;100532.06;5006687;28;20508;-68
2022/03/18 06:24:29;;;;;;;36.42;16.83;;;;;;;0.25;49.70;100537.97;5010452;28;20034;-68
2022/03/18 06:26:55;;;;;;;37.85;19.13;;;;;;;0.28;49.47;100545.72;5009275;28;20042;-67
2022/03/18 06:29:21;;;;;;;34.58;20.33;;;;;;;0.36;49.70;100537.56;5012930;28;20046;-67
2022/03/18 06:31:47;;;;;;;41.33;20.25;;;;;;;0.43;49.34;100535.81;5011903;28;20037;-67
2022/03/18 06:34:12;;;;;;;29.33;17.05;;;;;;;0.59;49.53;100534.91;5013028;28;20029;-67
2022/03/18 06:36:39;;;;;;;35.90;17.63;;;;;;;0.65;49.38;100543.28;4999541;28;20036;-68
2022/03/18 06:39:04;;;;;;;31.98;16.08;;;;;;;0.73;49.46;100549.47;5012948;28;20521;-66
2022/03/18 06:41:31;;;;;;;34.42;16.15;;;;;;;0.81;48.92;100540.47;5011994;28;20112;-67
2022/03/18 06:43:57;;;;;;;31.92;15.93;;;;;;;0.88;48.94;100549.53;5012574;28;20028;-67
2022/03/18 06:46:23;;;;;;;36.65;15.93;;;;;;;0.95;48.55;100556.91;5013232;28;20385;-67
2022/03/18 06:48:49;;;;;;;34.40;17.48;;;;;;;1.00;48.50;100551.81;5012578;28;20048;-67
2022/03/18 06:51:15;;;;;;;41.03;20.05;;;;;;;1.08;48.78;100553.59;5011469;28;20034;-67
2022/03/18 06:53:41;;;;;;;58.38;29.30;;;;;;;1.20;48.44;100557.56;5011654;28;20026;-67
2022/03/18 06:56:07;;;;;;;65.80;31.52;;;;;;;1.28;48.49;100559.34;5010492;28;20881;-67
2022/03/18 06:58:34;;;;;;;79.68;44.58;;;;;;;1.39;48.32;100560.75;5011581;28;20022;-67
2022/03/18 07:00:59;;;;;;;189.38;72.00;;;;;;;1.44;47.98;100558.34;5011520;28;20033;-67
2022/03/18 07:03:25;;;;;;;110.22;51.45;;;;;;;1.53;48.68;100561.78;5012121;28;20034;-68
2022/03/18 07:05:50;;;;;;;134.93;64.75;;;;;;;1.58;47.80;100567.47;5011656;28;20462;-67
2022/03/18 07:08:16;;;;;;;254.75;92.22;;;;;;;1.64;47.83;100569.44;5008728;28;20050;-68
2022/03/18 07:10:41;;;;;;;370.75;114.18;;;;;;;1.72;48.01;100568.50;5011524;28;20040;-68
2022/03/18 07:13:07;;;;;;;395.77;123.88;;;;;;;1.79;47.93;100566.75;5011248;28;20478;-68
2022/03/18 07:15:32;;;;;;;468.67;138.68;;;;;;;1.86;47.57;100577.66;5012614;28;20021;-67
2022/03/18 07:18:02;;;;;;;400.13;114.57;;;;;;;1.92;48.00;100577.78;5012581;28;20022;-67
2022/03/18 07:20:39;;;;;;;460.15;130.02;;;;;;;2.02;47.88;100576.66;5011964;28;20108;-67
2022/03/18 07:23:06;;;;;;;476.67;137.45;;;;;;;2.13;47.21;100576.16;5011051;28;20478;-68
2022/03/18 07:25:32;;;;;;;324.52;102.22;;;;;;;2.27;47.25;100569.03;5010934;28;20041;-66
2022/03/18 07:27:58;;;;;;;314.80;105.18;;;;;;;2.38;47.42;100579.38;5011787;28;20033;-67
2022/03/18 07:30:24;;;;;;;256.92;90.10;;;;;;;2.49;47.28;100575.34;5011727;28;20474;-67
2022/03/18 07:32:50;;;;;;;195.85;80.43;;;;;;;2.56;47.07;100580.00;5010600;28;20258;-66
2022/03/18 07:35:16;;;;;;;193.13;81.82;;;;;;;2.66;46.86;100589.50;5011580;28;20034;-68
2022/03/18 07:37:42;;;;;;;105.35;47.95;;;;;;;2.76;47.07;100588.34;5011465;28;20036;-67
2022/03/18 07:40:09;;;;;;;154.57;66.32;;;;;;;2.83;46.79;100583.84;5008773;28;20025;-66
2022/03/18 07:42:48;;;;;;;133.25;60.35;;;;;;;2.75;46.25;100581.25;5008109;28;20045;-67
2022/03/18 07:45:22;;;;;;;84.07;37.25;;;;;;;2.77;46.36;100598.16;4993226;28;20084;-67
2022/03/18 07:47:49;;;;;;;87.78;42.45;;;;;;;2.76;45.88;100591.91;5026390;28;20072;-67
2022/03/18 07:50:20;;;;;;;95.90;45.85;;;;;;;2.80;45.95;100585.06;5011016;28;20450;-66
2022/03/18 07:52:53;;;;;;;69.80;35.47;;;;;;;2.87;46.04;100590.56;5011123;28;20482;-66
2022/03/18 07:55:20;;;;;;;51.05;31.20;;;;;;;2.89;46.09;100593.06;5010808;28;20049;-67
2022/03/18 07:57:46;;;;;;;49.33;31.33;;;;;;;2.87;46.44;100600.53;5010264;28;20053;-66
2022/03/18 08:00:13;;;;;;;72.60;40.72;;;;;;;2.96;46.66;100600.25;5010145;28;20025;-66
2022/03/18 08:02:40;;;;;;;47.97;27.58;;;;;;;3.16;46.67;100598.75;5025538;28;20029;-66
2022/03/18 08:05:05;;;;;;;36.72;21.63;;;;;;;3.29;46.69;100601.56;5010590;28;20065;-67
2022/03/18 08:07:33;;;;;;;36.25;21.63;;;;;;;3.42;46.77;100603.59;5011011;28;20061;-66
2022/03/18 08:09:58;;;;;;;39.72;22.85;;;;;;;3.47;46.48;100605.69;5010870;28;20026;-65
2022/03/18 08:12:24;;;;;;;33.88;18.30;;;;;;;3.60;45.84;100607.66;5011834;28;20029;-66
2022/03/18 08:14:50;;;;;;;36.08;19.30;;;;;;;3.70;45.58;100624.44;5013081;28;20824;-67
2022/03/18 08:17:15;;;;;;;34.72;19.90;;;;;;;3.73;45.59;100618.63;5016317;28;20026;-66
2022/03/18 08:19:41;;;;;;;34.10;19.85;;;;;;;3.82;46.11;100632.88;5016422;28;20056;-66
2022/03/18 08:22:07;;;;;;;35.78;19.45;;;;;;;3.90;45.89;100629.16;5014264;28;20036;-67
2022/03/18 08:24:32;;;;;;;44.17;23.35;;;;;;;4.00;45.87;100622.38;5014786;28;20037;-78
2022/03/18 08:26:58;;;;;;;34.60;19.95;;;;;;;4.05;45.58;100629.91;5009662;28;20390;-66
2022/03/18 08:29:23;;;;;;;39.13;19.73;;;;;;;4.09;45.39;100628.47;5014728;28;20116;-67
2022/03/18 08:31:49;;;;;;;33.78;18.95;;;;;;;4.17;45.35;100628.31;5013208;28;20061;-66
2022/03/18 08:34:15;;;;;;;40.35;21.38;;;;;;;4.26;45.30;100628.16;5013637;28;20040;-66
2022/03/18 08:36:41;;;;;;;42.10;22.23;;;;;;;4.34;45.54;100641.53;5014840;28;20054;-69
2022/03/18 08:39:06;;;;;;;43.25;21.55;;;;;;;4.36;45.45;100638.66;5013620;28;20517;-66
2022/03/18 08:41:31;;;;;;;43.78;21.73;;;;;;;4.32;44.60;100639.03;5009959;28;20042;-66
2022/03/18 08:43:57;;;;;;;37.72;20.23;;;;;;;4.38;44.76;100644.72;5012843;28;20061;-67
2022/03/18 08:46:22;;;;;;;35.17;18.67;;;;;;;4.50;44.47;100642.25;5013266;28;20052;-66
2022/03/18 08:48:48;;;;;;;33.97;19.20;;;;;;;4.58;45.26;100644.81;4996510;28;20200;-67
2022/03/18 08:51:15;;;;;;;42.83;23.05;;;;;;;4.73;44.88;100641.94;5013403;28;20034;-67
2022/03/18 08:53:41;;;;;;;54.72;30.00;;;;;;;4.79;44.72;100641.13;5011119;28;20541;-75
2022/03/18 08:56:06;;;;;;;46.63;26.23;;;;;;;4.85;45.42;100644.91;5010505;28;20129;-67
2022/03/18 08:58:31;;;;;;;38.58;21.63;;;;;;;4.92;45.20;100648.47;5014920;28;20056;-67
2022/03/18 09:00:57;;;;;;;40.65;21.73;;;;;;;4.98;45.29;100661.25;5014201;28;20057;-67
2022/03/18 09:03:22;;;;;;;36.40;19.88;;;;;;;5.10;44.69;100664.22;5013171;28;20030;-67
2022/03/18 09:05:47;;;;;;;37.42;21.02;;;;;;;5.14;44.63;100665.47;5014898;28;20037;-66
2022/03/18 09:08:14;;;;;;;40.63;22.60;;;;;;;5.25;43.79;100672.19;5014991;28;20157;-67
2022/03/18 09:10:40;;;;;;;40.65;22.20;;;;;;;5.37;44.05;100669.69;5014938;28;20106;-67
2022/03/18 09:13:06;;;;;;;44.40;23.90;;;;;;;5.41;44.24;100670.13;5013719;28;20533;-67
2022/03/18 09:15:32;;;;;;;42.85;22.88;;;;;;;5.47;44.13;100674.75;5011020;28;20080;-67
2022/03/18 09:17:57;;;;;;;43.15;23.02;;;;;;;5.51;43.56;100673.25;5015195;28;20034;-67
2022/03/18 09:20:23;;;;;;;44.47;24.75;;;;;;;5.57;43.47;100682.50;5013436;28;20034;-68
2022/03/18 09:22:48;;;;;;;46.88;24.95;;;;;;;5.71;43.66;100676.00;5014109;28;20033;-68
2022/03/18 09:25:14;;;;;;;37.53;21.80;;;;;;;5.88;43.75;100679.16;5011010;28;20026;-68
2022/03/18 09:27:40;;;;;;;41.25;23.35;;;;;;;6.02;43.99;100687.34;5012499;28;20022;-68
2022/03/18 09:30:06;;;;;;;43.60;24.08;;;;;;;6.17;43.67;100692.56;5009925;28;20112;-67
2022/03/18 09:32:32;;;;;;;39.70;21.20;;;;;;;6.29;43.38;100690.84;5012104;28;20338;-67
2022/03/18 09:34:58;;;;;;;42.47;23.00;;;;;;;6.38;43.71;100692.31;5009767;28;20030;-68
2022/03/18 09:37:23;;;;;;;45.45;25.23;;;;;;;6.58;43.54;100696.84;5013370;28;20030;-68
2022/03/18 09:39:49;;;;;;;42.38;23.15;;;;;;;6.73;42.66;100698.50;5013425;28;20034;-68
2022/03/18 09:42:14;;;;;;;48.95;26.42;;;;;;;6.72;42.22;100694.94;5027837;28;20069;-67
2022/03/18 09:44:40;;;;;;;46.83;25.75;;;;;;;6.75;42.34;100699.94;5008704;28;20054;-67
2022/03/18 09:47:07;;;;;;;45.38;23.95;;;;;;;6.81;42.61;100701.00;5012648;28;20105;-67
2022/03/18 09:49:34;;;;;;;54.25;28.33;;;;;;;6.92;42.64;100708.50;5009941;28;20034;-75
2022/03/18 09:51:59;;;;;;;53.03;29.48;;;;;;;6.95;42.16;100709.94;5010810;28;20034;-67
2022/03/18 09:54:25;;;;;;;51.00;28.05;;;;;;;7.00;42.06;100710.97;5007684;28;20030;-68
2022/03/18 09:56:50;;;;;;;53.90;29.45;;;;;;;7.08;42.67;100704.44;5011683;28;20049;-69
2022/03/18 09:59:17;;;;;;;54.65;29.88;;;;;;;7.17;42.04;100712.34;5013517;28;20040;-69
2022/03/18 10:01:42;;;;;;;53.25;28.67;;;;;;;7.28;42.25;100703.47;5010336;28;20026;-69
2022/03/18 10:04:13;;;;;;;47.35;27.05;;;;;;;7.40;42.09;100703.59;5008926;28;20121;-69
2022/03/18 10:06:43;;;;;;;46.45;26.08;;;;;;;7.44;42.31;100705.69;5013415;28;20036;-68
2022/03/18 10:09:12;;;;;;;53.60;30.80;;;;;;;7.63;42.27;100703.03;5013311;28;20029;-68
2022/03/18 10:11:42;;;;;;;60.45;32.38;;;;;;;7.77;42.12;100698.31;5009727;28;20045;-67
2022/03/18 10:14:17;;;;;;;54.72;28.35;;;;;;;7.98;42.15;100699.81;5011351;28;20095;-68
2022/03/18 10:16:44;;;;;;;52.42;29.05;;;;;;;8.17;42.41;100702.59;5002037;28;20026;-68
2022/03/18 10:19:21;;;;;;;51.50;27.50;;;;;;;8.43;42.47;100704.22;5013105;28;20033;-68
2022/03/18 10:21:52;;;;;;;45.55;25.15;;;;;;;8.64;41.92;100699.38;5013722;28;20034;-69
2022/03/18 10:24:22;;;;;;;50.80;27.92;;;;;;;8.62;40.32;100694.16;5009155;28;20026;-68
2022/03/18 10:26:49;;;;;;;40.85;25.17;;;;;;;8.67;40.49;100698.94;5006121;28;20058;-69
2022/03/18 10:29:15;;;;;;;48.63;27.13;;;;;;;8.70;40.13;100700.41;4988720;28;20533;-70
2022/03/18 10:31:45;;;;;;;46.15;26.75;;;;;;;8.81;40.98;100696.88;4955505;28;20051;-68
2022/03/18 10:37:05;;;;;;;46.05;26.55;;;;;;;8.94;40.22;100699.44;4965173;28;20058;-69
2022/03/18 10:39:38;;;;;;;41.55;24.77;;;;;;;8.86;39.24;100705.22;4964278;28;20089;-69
2022/03/18 10:42:09;;;;;;;41.38;25.65;;;;;;;8.61;38.72;100700.69;4966129;28;20085;-69
2022/03/18 10:44:49;;;;;;;40.00;23.83;;;;;;;8.56;39.09;100699.72;4973677;28;20041;-69
2022/03/18 10:47:41;;;;;;;47.97;27.25;;;;;;;8.64;39.97;100692.03;4974699;28;20027;-69
2022/03/18 10:50:13;;;;;;;46.90;27.42;;;;;;;8.79;38.35;100701.72;4973516;28;20039;-69
2022/03/18 10:52:45;;;;;;;49.53;28.95;;;;;;;8.82;37.93;100693.06;4959964;28;20491;-69
2022/03/18 10:55:18;;;;;;;49.72;29.25;;;;;;;8.70;38.17;100700.41;4955033;28;20035;-69
2022/03/18 10:57:52;;;;;;;50.60;29.27;;;;;;;8.64;37.66;100688.44;4969417;28;20047;-69
2022/03/18 11:00:18;;;;;;;46.42;27.08;;;;;;;8.69;38.55;100696.81;4954856;28;20122;-69
2022/03/18 11:02:48;;;;;;;46.03;26.55;;;;;;;8.78;39.11;100698.19;4954901;28;20115;-70
2022/03/18 11:05:14;;;;;;;53.10;30.95;;;;;;;8.93;39.58;100706.00;4954208;28;20035;-69
2022/03/18 11:07:43;;;;;;;54.17;30.55;;;;;;;9.00;38.75;100700.41;4954748;28;20094;-69
2022/03/18 11:12:59;;;;;;;54.28;31.58;;;;;;;9.11;38.64;100704.31;4957474;28;20059;-69
2022/03/18 11:15:27;;;;;;;46.88;28.65;;;;;;;9.16;38.60;100703.59;4958541;28;20508;-69
2022/03/18 11:17:55;;;;;;;47.63;27.05;;;;;;;9.30;39.35;100709.72;4973280;28;20069;-69
2022/03/18 11:20:23;;;;;;;45.30;27.05;;;;;;;9.45;39.41;100701.91;4973574;28;20046;-69
2022/03/18 11:22:49;;;;;;;46.13;27.02;;;;;;;9.56;39.25;100703.00;4973474;28;20038;-69
2022/03/18 11:25:15;;;;;;;48.58;28.60;;;;;;;9.64;39.09;100696.34;4972630;28;20479;-69
2022/03/18 11:27:44;;;;;;;43.13;26.45;;;;;;;9.78;39.68;100692.34;4956621;28;20471;-69